sensor_id;sensor_type;location;lat;lon;timestamp;P1;durP1;ratioP1;P2;durP2;ratioP2
5345;SDS011;2695;49.444;11.054;2023-02-28T00:00:23;2.60;;;2.30;;
5345;SDS011;2695;49.444;11.054;2023-02-28T00:02:52;4.40;;;2.20;;
5345;SDS011;2695;49.444;11.054;2023-02-28T00:05:21;4.30;;;2.80;;
5345;SDS011;2695;49.444;11.054;2023-02-28T00:07:52;2.07;;;1.50;;
5345;SDS011;2695;49.444;11.054;2023-02-28T00:10:22;2.97;;;2.07;;
5345;SDS011;2695;49.444;11.054;2023-02-28T00:12:54;2.57;;;2.20;;
5345;SDS011;2695;49.444;11.054;2023-02-28T00:15:26;1.80;;;1.70;;
5345;SDS011;2695;49.444;11.054;2023-02-28T00:17:54;7.50;;;2.33;;
5345;SDS011;2695;49.444;11.054;2023-02-28T00:20:22;8.40;;;2.20;;
5345;SDS011;2695;49.444;11.054;2023-02-28T00:22:51;4.67;;;2.67;;
5345;SDS011;2695;49.444;11.054;2023-02-28T00:25:21;3.97;;;2.30;;
5345;SDS011;2695;49.444;11.054;2023-02-28T00:27:51;3.23;;;2.13;;
5345;SDS011;2695;49.444;11.054;2023-02-28T00:30:22;6.10;;;3.23;;
5345;SDS011;2695;49.444;11.054;2023-02-28T00:32:50;7.87;;;2.77;;
5345;SDS011;2695;49.444;11.054;2023-02-28T00:35:19;3.50;;;2.27;;
5345;SDS011;2695;49.444;11.054;2023-02-28T00:37:47;4.90;;;2.47;;
5345;SDS011;2695;49.444;11.054;2023-02-28T00:40:16;3.60;;;2.20;;
5345;SDS011;2695;49.444;11.054;2023-02-28T00:42:44;4.07;;;2.60;;
5345;SDS011;2695;49.444;11.054;2023-02-28T00:45:12;4.27;;;2.70;;
5345;SDS011;2695;49.444;11.054;2023-02-28T00:47:41;5.20;;;2.73;;
5345;SDS011;2695;49.444;11.054;2023-02-28T00:50:10;2.73;;;2.33;;
5345;SDS011;2695;49.444;11.054;2023-02-28T00:52:38;2.80;;;2.43;;
5345;SDS011;2695;49.444;11.054;2023-02-28T00:55:06;3.50;;;2.40;;
5345;SDS011;2695;49.444;11.054;2023-02-28T00:57:35;3.80;;;2.23;;
5345;SDS011;2695;49.444;11.054;2023-02-28T01:00:03;2.83;;;2.47;;
5345;SDS011;2695;49.444;11.054;2023-02-28T01:02:32;3.70;;;2.57;;
5345;SDS011;2695;49.444;11.054;2023-02-28T01:05:02;4.03;;;2.80;;
5345;SDS011;2695;49.444;11.054;2023-02-28T01:07:30;4.40;;;2.47;;
5345;SDS011;2695;49.444;11.054;2023-02-28T01:09:59;6.13;;;2.70;;
5345;SDS011;2695;49.444;11.054;2023-02-28T01:12:27;4.50;;;2.03;;
5345;SDS011;2695;49.444;11.054;2023-02-28T01:14:56;13.57;;;3.00;;
5345;SDS011;2695;49.444;11.054;2023-02-28T01:17:24;4.43;;;2.60;;
5345;SDS011;2695;49.444;11.054;2023-02-28T01:19:53;4.60;;;2.87;;
5345;SDS011;2695;49.444;11.054;2023-02-28T01:22:23;4.67;;;2.57;;
5345;SDS011;2695;49.444;11.054;2023-02-28T01:24:51;1.83;;;1.67;;
5345;SDS011;2695;49.444;11.054;2023-02-28T01:27:20;3.70;;;2.93;;
5345;SDS011;2695;49.444;11.054;2023-02-28T01:29:48;4.90;;;3.07;;
5345;SDS011;2695;49.444;11.054;2023-02-28T01:32:17;3.80;;;2.13;;
5345;SDS011;2695;49.444;11.054;2023-02-28T01:34:46;5.67;;;2.57;;
5345;SDS011;2695;49.444;11.054;2023-02-28T01:37:14;3.70;;;2.60;;
5345;SDS011;2695;49.444;11.054;2023-02-28T01:39:43;6.10;;;3.10;;
5345;SDS011;2695;49.444;11.054;2023-02-28T01:42:11;4.10;;;2.50;;
5345;SDS011;2695;49.444;11.054;2023-02-28T01:44:57;4.77;;;2.77;;
5345;SDS011;2695;49.444;11.054;2023-02-28T01:47:28;3.77;;;2.57;;
5345;SDS011;2695;49.444;11.054;2023-02-28T01:49:59;2.93;;;2.47;;
5345;SDS011;2695;49.444;11.054;2023-02-28T01:52:29;4.43;;;2.90;;
5345;SDS011;2695;49.444;11.054;2023-02-28T01:55:00;4.60;;;2.83;;
5345;SDS011;2695;49.444;11.054;2023-02-28T01:57:32;7.03;;;3.07;;
5345;SDS011;2695;49.444;11.054;2023-02-28T02:00:05;6.37;;;3.53;;
5345;SDS011;2695;49.444;11.054;2023-02-28T02:02:39;4.03;;;2.40;;
5345;SDS011;2695;49.444;11.054;2023-02-28T02:05:11;5.27;;;2.80;;
5345;SDS011;2695;49.444;11.054;2023-02-28T02:07:42;5.50;;;3.03;;
5345;SDS011;2695;49.444;11.054;2023-02-28T02:10:14;4.83;;;3.07;;
5345;SDS011;2695;49.444;11.054;2023-02-28T02:12:49;5.93;;;2.67;;
5345;SDS011;2695;49.444;11.054;2023-02-28T02:15:32;8.00;;;3.50;;
5345;SDS011;2695;49.444;11.054;2023-02-28T02:18:04;5.10;;;3.07;;
5345;SDS011;2695;49.444;11.054;2023-02-28T02:20:51;4.03;;;2.40;;
5345;SDS011;2695;49.444;11.054;2023-02-28T02:26:38;4.43;;;2.50;;
5345;SDS011;2695;49.444;11.054;2023-02-28T02:29:37;2.80;;;2.60;;
5345;SDS011;2695;49.444;11.054;2023-02-28T02:32:44;7.40;;;3.03;;
5345;SDS011;2695;49.444;11.054;2023-02-28T02:35:32;5.43;;;3.67;;
5345;SDS011;2695;49.444;11.054;2023-02-28T02:38:07;4.40;;;3.30;;
5345;SDS011;2695;49.444;11.054;2023-02-28T02:40:43;4.63;;;3.07;;
5345;SDS011;2695;49.444;11.054;2023-02-28T02:43:19;4.27;;;3.00;;
5345;SDS011;2695;49.444;11.054;2023-02-28T02:45:53;3.03;;;2.00;;
5345;SDS011;2695;49.444;11.054;2023-02-28T02:48:25;5.83;;;3.30;;
5345;SDS011;2695;49.444;11.054;2023-02-28T02:50:58;5.63;;;3.27;;
5345;SDS011;2695;49.444;11.054;2023-02-28T02:53:29;4.33;;;2.90;;
5345;SDS011;2695;49.444;11.054;2023-02-28T02:56:00;5.57;;;3.57;;
5345;SDS011;2695;49.444;11.054;2023-02-28T02:58:31;4.60;;;2.53;;
5345;SDS011;2695;49.444;11.054;2023-02-28T03:01:02;4.03;;;3.10;;
5345;SDS011;2695;49.444;11.054;2023-02-28T03:03:32;5.77;;;3.60;;
5345;SDS011;2695;49.444;11.054;2023-02-28T03:06:03;6.53;;;3.43;;
5345;SDS011;2695;49.444;11.054;2023-02-28T03:08:33;5.33;;;3.40;;
5345;SDS011;2695;49.444;11.054;2023-02-28T03:11:03;5.30;;;3.83;;
5345;SDS011;2695;49.444;11.054;2023-02-28T03:13:40;4.97;;;3.47;;
5345;SDS011;2695;49.444;11.054;2023-02-28T03:16:21;4.53;;;3.23;;
5345;SDS011;2695;49.444;11.054;2023-02-28T03:19:05;4.53;;;3.00;;
5345;SDS011;2695;49.444;11.054;2023-02-28T03:21:56;7.97;;;3.27;;
5345;SDS011;2695;49.444;11.054;2023-02-28T03:24:31;4.73;;;3.17;;
5345;SDS011;2695;49.444;11.054;2023-02-28T03:27:04;5.50;;;3.40;;
5345;SDS011;2695;49.444;11.054;2023-02-28T03:29:35;6.20;;;3.77;;
5345;SDS011;2695;49.444;11.054;2023-02-28T03:32:08;4.50;;;3.63;;
5345;SDS011;2695;49.444;11.054;2023-02-28T03:34:48;5.00;;;3.37;;
5345;SDS011;2695;49.444;11.054;2023-02-28T03:37:22;5.17;;;3.40;;
5345;SDS011;2695;49.444;11.054;2023-02-28T03:39:53;5.57;;;4.17;;
5345;SDS011;2695;49.444;11.054;2023-02-28T03:42:27;4.60;;;3.50;;
5345;SDS011;2695;49.444;11.054;2023-02-28T03:44:57;8.87;;;4.30;;
5345;SDS011;2695;49.444;11.054;2023-02-28T03:47:28;3.13;;;2.50;;
5345;SDS011;2695;49.444;11.054;2023-02-28T03:50:03;6.10;;;3.60;;
5345;SDS011;2695;49.444;11.054;2023-02-28T03:52:36;3.90;;;2.80;;
5345;SDS011;2695;49.444;11.054;2023-02-28T03:55:11;7.03;;;4.80;;
5345;SDS011;2695;49.444;11.054;2023-02-28T03:57:43;6.83;;;4.03;;
5345;SDS011;2695;49.444;11.054;2023-02-28T04:00:20;5.93;;;3.67;;
5345;SDS011;2695;49.444;11.054;2023-02-28T04:02:54;7.50;;;4.30;;
5345;SDS011;2695;49.444;11.054;2023-02-28T04:05:22;3.70;;;3.13;;
5345;SDS011;2695;49.444;11.054;2023-02-28T04:07:52;4.20;;;3.00;;
5345;SDS011;2695;49.444;11.054;2023-02-28T04:10:21;4.03;;;3.63;;
5345;SDS011;2695;49.444;11.054;2023-02-28T04:12:49;5.07;;;4.00;;
5345;SDS011;2695;49.444;11.054;2023-02-28T04:15:17;5.27;;;3.93;;
5345;SDS011;2695;49.444;11.054;2023-02-28T04:17:48;6.27;;;4.10;;
5345;SDS011;2695;49.444;11.054;2023-02-28T04:20:16;8.73;;;4.37;;
5345;SDS011;2695;49.444;11.054;2023-02-28T04:22:45;6.27;;;4.50;;
5345;SDS011;2695;49.444;11.054;2023-02-28T04:25:14;7.20;;;4.47;;
5345;SDS011;2695;49.444;11.054;2023-02-28T04:27:42;6.20;;;3.83;;
5345;SDS011;2695;49.444;11.054;2023-02-28T04:30:11;9.40;;;4.40;;
5345;SDS011;2695;49.444;11.054;2023-02-28T04:32:39;6.70;;;3.70;;
5345;SDS011;2695;49.444;11.054;2023-02-28T04:35:08;5.40;;;4.03;;
5345;SDS011;2695;49.444;11.054;2023-02-28T04:37:37;5.73;;;4.50;;
5345;SDS011;2695;49.444;11.054;2023-02-28T04:40:06;6.20;;;3.70;;
5345;SDS011;2695;49.444;11.054;2023-02-28T04:42:36;6.03;;;3.80;;
5345;SDS011;2695;49.444;11.054;2023-02-28T04:45:04;4.40;;;3.57;;
5345;SDS011;2695;49.444;11.054;2023-02-28T04:47:36;8.03;;;3.90;;
5345;SDS011;2695;49.444;11.054;2023-02-28T04:50:04;7.53;;;4.00;;
5345;SDS011;2695;49.444;11.054;2023-02-28T04:52:33;7.13;;;4.60;;
5345;SDS011;2695;49.444;11.054;2023-02-28T04:55:01;6.37;;;3.80;;
5345;SDS011;2695;49.444;11.054;2023-02-28T04:57:29;5.80;;;4.03;;
5345;SDS011;2695;49.444;11.054;2023-02-28T04:59:58;4.77;;;4.20;;
5345;SDS011;2695;49.444;11.054;2023-02-28T05:02:26;10.10;;;4.57;;
5345;SDS011;2695;49.444;11.054;2023-02-28T05:04:54;7.40;;;4.73;;
5345;SDS011;2695;49.444;11.054;2023-02-28T05:07:22;8.47;;;4.13;;
5345;SDS011;2695;49.444;11.054;2023-02-28T05:09:50;7.00;;;4.30;;
5345;SDS011;2695;49.444;11.054;2023-02-28T05:12:19;6.40;;;4.00;;
5345;SDS011;2695;49.444;11.054;2023-02-28T05:14:47;5.40;;;3.87;;
5345;SDS011;2695;49.444;11.054;2023-02-28T05:17:16;6.20;;;4.27;;
5345;SDS011;2695;49.444;11.054;2023-02-28T05:19:44;7.50;;;4.47;;
5345;SDS011;2695;49.444;11.054;2023-02-28T05:22:13;7.70;;;4.97;;
5345;SDS011;2695;49.444;11.054;2023-02-28T05:24:42;9.17;;;4.80;;
5345;SDS011;2695;49.444;11.054;2023-02-28T05:27:11;8.50;;;4.03;;
5345;SDS011;2695;49.444;11.054;2023-02-28T05:29:39;10.77;;;4.67;;
5345;SDS011;2695;49.444;11.054;2023-02-28T05:32:09;7.07;;;4.10;;
5345;SDS011;2695;49.444;11.054;2023-02-28T05:34:39;5.17;;;3.10;;
5345;SDS011;2695;49.444;11.054;2023-02-28T05:37:10;7.63;;;4.33;;
5345;SDS011;2695;49.444;11.054;2023-02-28T05:39:40;9.63;;;4.83;;
5345;SDS011;2695;49.444;11.054;2023-02-28T05:42:08;5.37;;;4.00;;
5345;SDS011;2695;49.444;11.054;2023-02-28T05:44:36;7.53;;;5.30;;
5345;SDS011;2695;49.444;11.054;2023-02-28T05:47:04;13.67;;;4.80;;
5345;SDS011;2695;49.444;11.054;2023-02-28T05:49:32;5.93;;;4.00;;
5345;SDS011;2695;49.444;11.054;2023-02-28T05:52:02;9.97;;;4.77;;
5345;SDS011;2695;49.444;11.054;2023-02-28T05:54:30;5.90;;;4.30;;
5345;SDS011;2695;49.444;11.054;2023-02-28T05:57:01;5.00;;;3.80;;
5345;SDS011;2695;49.444;11.054;2023-02-28T05:59:38;5.00;;;3.73;;
5345;SDS011;2695;49.444;11.054;2023-02-28T06:02:06;7.20;;;4.27;;
5345;SDS011;2695;49.444;11.054;2023-02-28T06:04:40;8.60;;;4.37;;
5345;SDS011;2695;49.444;11.054;2023-02-28T06:07:10;7.43;;;4.40;;
5345;SDS011;2695;49.444;11.054;2023-02-28T06:09:39;8.07;;;5.20;;
5345;SDS011;2695;49.444;11.054;2023-02-28T06:12:07;7.23;;;4.70;;
5345;SDS011;2695;49.444;11.054;2023-02-28T06:14:37;5.80;;;4.23;;
5345;SDS011;2695;49.444;11.054;2023-02-28T06:17:05;8.20;;;5.20;;
5345;SDS011;2695;49.444;11.054;2023-02-28T06:19:33;8.13;;;5.23;;
5345;SDS011;2695;49.444;11.054;2023-02-28T06:22:03;6.23;;;4.50;;
5345;SDS011;2695;49.444;11.054;2023-02-28T06:24:33;8.27;;;5.27;;
5345;SDS011;2695;49.444;11.054;2023-02-28T06:27:01;9.40;;;5.43;;
5345;SDS011;2695;49.444;11.054;2023-02-28T06:29:31;5.40;;;4.17;;
5345;SDS011;2695;49.444;11.054;2023-02-28T06:32:00;7.40;;;4.77;;
5345;SDS011;2695;49.444;11.054;2023-02-28T06:34:28;7.37;;;5.10;;
5345;SDS011;2695;49.444;11.054;2023-02-28T06:36:57;5.20;;;3.90;;
5345;SDS011;2695;49.444;11.054;2023-02-28T06:39:28;8.73;;;5.00;;
5345;SDS011;2695;49.444;11.054;2023-02-28T06:41:58;7.27;;;4.80;;
5345;SDS011;2695;49.444;11.054;2023-02-28T06:44:26;7.63;;;4.70;;
5345;SDS011;2695;49.444;11.054;2023-02-28T06:47:01;7.43;;;4.73;;
5345;SDS011;2695;49.444;11.054;2023-02-28T06:49:30;5.40;;;3.60;;
5345;SDS011;2695;49.444;11.054;2023-02-28T06:51:59;6.13;;;4.00;;
5345;SDS011;2695;49.444;11.054;2023-02-28T06:54:28;8.87;;;4.87;;
5345;SDS011;2695;49.444;11.054;2023-02-28T06:56:58;13.83;;;4.67;;
5345;SDS011;2695;49.444;11.054;2023-02-28T06:59:26;8.83;;;4.63;;
5345;SDS011;2695;49.444;11.054;2023-02-28T07:01:57;6.50;;;4.10;;
5345;SDS011;2695;49.444;11.054;2023-02-28T07:04:46;12.80;;;5.40;;
5345;SDS011;2695;49.444;11.054;2023-02-28T07:07:14;12.27;;;6.23;;
5345;SDS011;2695;49.444;11.054;2023-02-28T07:09:42;10.80;;;5.90;;
5345;SDS011;2695;49.444;11.054;2023-02-28T07:12:11;9.50;;;5.40;;
5345;SDS011;2695;49.444;11.054;2023-02-28T07:14:40;4.47;;;3.90;;
5345;SDS011;2695;49.444;11.054;2023-02-28T07:17:11;6.37;;;4.30;;
5345;SDS011;2695;49.444;11.054;2023-02-28T07:19:39;6.57;;;4.40;;
5345;SDS011;2695;49.444;11.054;2023-02-28T07:22:07;6.03;;;4.20;;
5345;SDS011;2695;49.444;11.054;2023-02-28T07:24:35;13.97;;;8.23;;
5345;SDS011;2695;49.444;11.054;2023-02-28T07:27:04;12.53;;;4.10;;
5345;SDS011;2695;49.444;11.054;2023-02-28T07:29:34;12.40;;;6.83;;
5345;SDS011;2695;49.444;11.054;2023-02-28T07:32:02;7.57;;;5.10;;
5345;SDS011;2695;49.444;11.054;2023-02-28T07:34:30;9.53;;;5.37;;
5345;SDS011;2695;49.444;11.054;2023-02-28T07:36:58;12.80;;;4.47;;
5345;SDS011;2695;49.444;11.054;2023-02-28T07:39:29;9.90;;;4.57;;
5345;SDS011;2695;49.444;11.054;2023-02-28T07:41:57;10.97;;;5.40;;
5345;SDS011;2695;49.444;11.054;2023-02-28T07:44:25;7.80;;;4.50;;
5345;SDS011;2695;49.444;11.054;2023-02-28T07:46:55;6.03;;;3.70;;
5345;SDS011;2695;49.444;11.054;2023-02-28T07:49:23;6.20;;;4.07;;
5345;SDS011;2695;49.444;11.054;2023-02-28T07:51:51;7.10;;;5.00;;
5345;SDS011;2695;49.444;11.054;2023-02-28T07:54:19;8.30;;;4.67;;
5345;SDS011;2695;49.444;11.054;2023-02-28T07:56:47;8.60;;;4.73;;
5345;SDS011;2695;49.444;11.054;2023-02-28T07:59:15;11.20;;;5.67;;
5345;SDS011;2695;49.444;11.054;2023-02-28T08:01:43;8.13;;;4.10;;
5345;SDS011;2695;49.444;11.054;2023-02-28T08:04:13;9.43;;;5.23;;
5345;SDS011;2695;49.444;11.054;2023-02-28T08:06:40;9.30;;;5.53;;
5345;SDS011;2695;49.444;11.054;2023-02-28T08:09:08;7.90;;;5.13;;
5345;SDS011;2695;49.444;11.054;2023-02-28T08:11:37;5.67;;;3.40;;
5345;SDS011;2695;49.444;11.054;2023-02-28T08:14:05;7.57;;;5.20;;
5345;SDS011;2695;49.444;11.054;2023-02-28T08:16:33;8.10;;;4.90;;
5345;SDS011;2695;49.444;11.054;2023-02-28T08:19:01;6.63;;;4.57;;
5345;SDS011;2695;49.444;11.054;2023-02-28T08:21:30;7.27;;;5.03;;
5345;SDS011;2695;49.444;11.054;2023-02-28T08:23:59;7.63;;;4.80;;
5345;SDS011;2695;49.444;11.054;2023-02-28T08:26:27;6.33;;;4.20;;
5345;SDS011;2695;49.444;11.054;2023-02-28T08:28:55;10.30;;;5.80;;
5345;SDS011;2695;49.444;11.054;2023-02-28T08:31:25;8.60;;;5.57;;
5345;SDS011;2695;49.444;11.054;2023-02-28T08:33:54;5.57;;;4.03;;
5345;SDS011;2695;49.444;11.054;2023-02-28T08:36:25;9.37;;;4.17;;
5345;SDS011;2695;49.444;11.054;2023-02-28T08:38:56;8.03;;;5.57;;
5345;SDS011;2695;49.444;11.054;2023-02-28T08:41:25;8.87;;;6.20;;
5345;SDS011;2695;49.444;11.054;2023-02-28T08:43:54;5.40;;;4.03;;
5345;SDS011;2695;49.444;11.054;2023-02-28T08:46:22;11.30;;;5.77;;
5345;SDS011;2695;49.444;11.054;2023-02-28T08:48:51;14.33;;;5.03;;
5345;SDS011;2695;49.444;11.054;2023-02-28T08:51:20;11.20;;;5.10;;
5345;SDS011;2695;49.444;11.054;2023-02-28T08:53:53;6.63;;;4.17;;
5345;SDS011;2695;49.444;11.054;2023-02-28T08:56:25;8.03;;;3.80;;
5345;SDS011;2695;49.444;11.054;2023-02-28T08:58:54;10.20;;;4.60;;
5345;SDS011;2695;49.444;11.054;2023-02-28T09:01:24;11.43;;;4.27;;
5345;SDS011;2695;49.444;11.054;2023-02-28T09:03:55;7.73;;;5.73;;
5345;SDS011;2695;49.444;11.054;2023-02-28T09:06:24;5.43;;;3.83;;
5345;SDS011;2695;49.444;11.054;2023-02-28T09:08:57;7.90;;;5.40;;
5345;SDS011;2695;49.444;11.054;2023-02-28T09:11:27;6.23;;;4.20;;
5345;SDS011;2695;49.444;11.054;2023-02-28T09:13:56;21.30;;;11.53;;
5345;SDS011;2695;49.444;11.054;2023-02-28T09:16:25;11.97;;;6.47;;
5345;SDS011;2695;49.444;11.054;2023-02-28T09:18:53;13.07;;;5.10;;
5345;SDS011;2695;49.444;11.054;2023-02-28T09:21:21;4.27;;;2.40;;
5345;SDS011;2695;49.444;11.054;2023-02-28T09:23:50;10.07;;;6.53;;
5345;SDS011;2695;49.444;11.054;2023-02-28T09:26:20;7.93;;;5.30;;
5345;SDS011;2695;49.444;11.054;2023-02-28T09:28:50;6.30;;;4.70;;
5345;SDS011;2695;49.444;11.054;2023-02-28T09:31:20;6.83;;;5.20;;
5345;SDS011;2695;49.444;11.054;2023-02-28T09:33:50;8.73;;;5.67;;
5345;SDS011;2695;49.444;11.054;2023-02-28T09:36:20;10.47;;;6.60;;
5345;SDS011;2695;49.444;11.054;2023-02-28T09:38:59;4.87;;;3.87;;
5345;SDS011;2695;49.444;11.054;2023-02-28T09:41:30;8.97;;;4.83;;
5345;SDS011;2695;49.444;11.054;2023-02-28T09:44:06;6.40;;;5.13;;
5345;SDS011;2695;49.444;11.054;2023-02-28T09:46:40;15.83;;;8.83;;
5345;SDS011;2695;49.444;11.054;2023-02-28T09:49:12;13.10;;;8.10;;
5345;SDS011;2695;49.444;11.054;2023-02-28T09:51:45;13.77;;;6.17;;
5345;SDS011;2695;49.444;11.054;2023-02-28T09:54:18;8.93;;;5.10;;
5345;SDS011;2695;49.444;11.054;2023-02-28T09:56:50;6.73;;;4.27;;
5345;SDS011;2695;49.444;11.054;2023-02-28T09:59:28;9.83;;;6.50;;
5345;SDS011;2695;49.444;11.054;2023-02-28T10:02:09;9.83;;;5.53;;
5345;SDS011;2695;49.444;11.054;2023-02-28T10:04:46;6.60;;;4.73;;
5345;SDS011;2695;49.444;11.054;2023-02-28T10:07:21;9.00;;;5.77;;
5345;SDS011;2695;49.444;11.054;2023-02-28T10:09:58;9.63;;;5.70;;
5345;SDS011;2695;49.444;11.054;2023-02-28T10:12:31;8.13;;;5.40;;
5345;SDS011;2695;49.444;11.054;2023-02-28T10:15:00;10.90;;;5.87;;
5345;SDS011;2695;49.444;11.054;2023-02-28T10:17:32;5.27;;;3.97;;
5345;SDS011;2695;49.444;11.054;2023-02-28T10:20:21;6.40;;;5.40;;
5345;SDS011;2695;49.444;11.054;2023-02-28T10:22:57;4.77;;;3.00;;
5345;SDS011;2695;49.444;11.054;2023-02-28T10:25:34;6.57;;;4.80;;
5345;SDS011;2695;49.444;11.054;2023-02-28T10:28:09;7.27;;;4.80;;
5345;SDS011;2695;49.444;11.054;2023-02-28T10:30:39;10.30;;;5.80;;
5345;SDS011;2695;49.444;11.054;2023-02-28T10:33:14;7.53;;;4.77;;
5345;SDS011;2695;49.444;11.054;2023-02-28T10:35:50;4.63;;;3.87;;
5345;SDS011;2695;49.444;11.054;2023-02-28T10:38:20;4.97;;;3.97;;
5345;SDS011;2695;49.444;11.054;2023-02-28T10:40:50;6.23;;;4.20;;
5345;SDS011;2695;49.444;11.054;2023-02-28T10:43:21;6.83;;;4.10;;
5345;SDS011;2695;49.444;11.054;2023-02-28T10:45:55;5.37;;;2.77;;
5345;SDS011;2695;49.444;11.054;2023-02-28T10:48:27;6.70;;;4.10;;
5345;SDS011;2695;49.444;11.054;2023-02-28T10:50:59;9.87;;;4.80;;
5345;SDS011;2695;49.444;11.054;2023-02-28T10:53:30;6.57;;;4.57;;
5345;SDS011;2695;49.444;11.054;2023-02-28T10:56:20;8.67;;;5.00;;
5345;SDS011;2695;49.444;11.054;2023-02-28T10:58:53;10.17;;;4.57;;
5345;SDS011;2695;49.444;11.054;2023-02-28T11:01:23;7.77;;;5.03;;
5345;SDS011;2695;49.444;11.054;2023-02-28T11:04:01;7.30;;;5.10;;
5345;SDS011;2695;49.444;11.054;2023-02-28T11:06:30;8.27;;;5.07;;
5345;SDS011;2695;49.444;11.054;2023-02-28T11:09:00;7.93;;;5.10;;
5345;SDS011;2695;49.444;11.054;2023-02-28T11:11:41;6.50;;;4.50;;
5345;SDS011;2695;49.444;11.054;2023-02-28T11:14:17;6.90;;;4.73;;
5345;SDS011;2695;49.444;11.054;2023-02-28T11:16:48;6.90;;;4.97;;
5345;SDS011;2695;49.444;11.054;2023-02-28T11:19:19;8.13;;;4.63;;
5345;SDS011;2695;49.444;11.054;2023-02-28T11:21:52;8.07;;;4.80;;
5345;SDS011;2695;49.444;11.054;2023-02-28T11:24:24;5.80;;;4.20;;
5345;SDS011;2695;49.444;11.054;2023-02-28T11:26:55;6.33;;;3.87;;
5345;SDS011;2695;49.444;11.054;2023-02-28T11:29:26;6.13;;;4.47;;
5345;SDS011;2695;49.444;11.054;2023-02-28T11:32:16;12.80;;;5.67;;
5345;SDS011;2695;49.444;11.054;2023-02-28T11:34:58;7.17;;;4.43;;
5345;SDS011;2695;49.444;11.054;2023-02-28T11:37:29;7.03;;;4.27;;
5345;SDS011;2695;49.444;11.054;2023-02-28T11:39:59;7.30;;;4.80;;
5345;SDS011;2695;49.444;11.054;2023-02-28T11:42:40;10.17;;;5.90;;
5345;SDS011;2695;49.444;11.054;2023-02-28T11:45:24;5.87;;;4.00;;
5345;SDS011;2695;49.444;11.054;2023-02-28T11:48:08;7.50;;;5.30;;
5345;SDS011;2695;49.444;11.054;2023-02-28T11:50:45;8.90;;;4.80;;
5345;SDS011;2695;49.444;11.054;2023-02-28T11:53:41;7.80;;;4.77;;
5345;SDS011;2695;49.444;11.054;2023-02-28T11:56:19;11.17;;;5.63;;
5345;SDS011;2695;49.444;11.054;2023-02-28T11:58:55;8.90;;;4.90;;
5345;SDS011;2695;49.444;11.054;2023-02-28T12:01:41;11.10;;;5.93;;
5345;SDS011;2695;49.444;11.054;2023-02-28T12:04:25;7.83;;;5.33;;
5345;SDS011;2695;49.444;11.054;2023-02-28T12:07:02;6.97;;;5.07;;
5345;SDS011;2695;49.444;11.054;2023-02-28T12:09:42;8.43;;;4.63;;
5345;SDS011;2695;49.444;11.054;2023-02-28T12:12:21;9.60;;;5.40;;
5345;SDS011;2695;49.444;11.054;2023-02-28T12:15:04;15.53;;;4.60;;
5345;SDS011;2695;49.444;11.054;2023-02-28T12:17:48;7.67;;;5.20;;
5345;SDS011;2695;49.444;11.054;2023-02-28T12:20:27;8.10;;;4.67;;
5345;SDS011;2695;49.444;11.054;2023-02-28T12:23:07;6.03;;;3.70;;
5345;SDS011;2695;49.444;11.054;2023-02-28T12:25:55;11.03;;;4.60;;
5345;SDS011;2695;49.444;11.054;2023-02-28T12:28:42;9.13;;;4.50;;
5345;SDS011;2695;49.444;11.054;2023-02-28T12:31:15;6.13;;;3.87;;
5345;SDS011;2695;49.444;11.054;2023-02-28T12:33:51;7.63;;;5.33;;
5345;SDS011;2695;49.444;11.054;2023-02-28T12:36:23;7.93;;;4.33;;
5345;SDS011;2695;49.444;11.054;2023-02-28T12:38:53;10.83;;;5.10;;
5345;SDS011;2695;49.444;11.054;2023-02-28T12:41:29;8.43;;;4.17;;
5345;SDS011;2695;49.444;11.054;2023-02-28T12:44:06;13.67;;;5.27;;
5345;SDS011;2695;49.444;11.054;2023-02-28T12:46:41;8.23;;;4.97;;
5345;SDS011;2695;49.444;11.054;2023-02-28T12:49:15;5.27;;;4.33;;
5345;SDS011;2695;49.444;11.054;2023-02-28T12:51:46;4.73;;;4.13;;
5345;SDS011;2695;49.444;11.054;2023-02-28T12:54:18;6.97;;;4.00;;
5345;SDS011;2695;49.444;11.054;2023-02-28T12:56:54;10.60;;;4.40;;
5345;SDS011;2695;49.444;11.054;2023-02-28T12:59:32;5.30;;;4.07;;
5345;SDS011;2695;49.444;11.054;2023-02-28T13:05:14;6.13;;;4.10;;
5345;SDS011;2695;49.444;11.054;2023-02-28T13:08:42;8.80;;;6.10;;
5345;SDS011;2695;49.444;11.054;2023-02-28T13:11:30;5.73;;;4.70;;
5345;SDS011;2695;49.444;11.054;2023-02-28T13:14:02;10.70;;;4.70;;
5345;SDS011;2695;49.444;11.054;2023-02-28T13:19:26;8.13;;;4.63;;
5345;SDS011;2695;49.444;11.054;2023-02-28T13:21:57;12.20;;;5.97;;
5345;SDS011;2695;49.444;11.054;2023-02-28T13:24:43;6.67;;;4.47;;
5345;SDS011;2695;49.444;11.054;2023-02-28T13:30:01;12.47;;;5.90;;
5345;SDS011;2695;49.444;11.054;2023-02-28T13:33:24;8.90;;;5.57;;
5345;SDS011;2695;49.444;11.054;2023-02-28T13:38:53;7.50;;;5.10;;
5345;SDS011;2695;49.444;11.054;2023-02-28T13:41:45;10.27;;;5.87;;
5345;SDS011;2695;49.444;11.054;2023-02-28T13:44:16;13.33;;;6.43;;
5345;SDS011;2695;49.444;11.054;2023-02-28T13:49:51;11.20;;;6.50;;
5345;SDS011;2695;49.444;11.054;2023-02-28T13:52:20;8.40;;;5.63;;
5345;SDS011;2695;49.444;11.054;2023-02-28T13:54:58;9.60;;;6.13;;
5345;SDS011;2695;49.444;11.054;2023-02-28T13:57:46;8.30;;;5.50;;
5345;SDS011;2695;49.444;11.054;2023-02-28T14:00:28;9.87;;;6.10;;
5345;SDS011;2695;49.444;11.054;2023-02-28T14:03:19;8.73;;;5.07;;
5345;SDS011;2695;49.444;11.054;2023-02-28T14:06:16;11.13;;;6.67;;
5345;SDS011;2695;49.444;11.054;2023-02-28T14:08:56;9.40;;;6.53;;
5345;SDS011;2695;49.444;11.054;2023-02-28T14:11:29;11.70;;;6.43;;
5345;SDS011;2695;49.444;11.054;2023-02-28T14:13:59;9.13;;;6.00;;
5345;SDS011;2695;49.444;11.054;2023-02-28T14:16:34;10.23;;;6.57;;
5345;SDS011;2695;49.444;11.054;2023-02-28T14:19:09;7.70;;;5.37;;
5345;SDS011;2695;49.444;11.054;2023-02-28T14:21:43;6.87;;;5.80;;
5345;SDS011;2695;49.444;11.054;2023-02-28T14:24:26;12.10;;;5.77;;
5345;SDS011;2695;49.444;11.054;2023-02-28T14:27:21;10.57;;;5.90;;
5345;SDS011;2695;49.444;11.054;2023-02-28T14:30:04;13.47;;;6.33;;
5345;SDS011;2695;49.444;11.054;2023-02-28T14:33:13;13.40;;;5.30;;
5345;SDS011;2695;49.444;11.054;2023-02-28T14:35:53;8.87;;;7.03;;
5345;SDS011;2695;49.444;11.054;2023-02-28T14:38:28;9.33;;;6.33;;
5345;SDS011;2695;49.444;11.054;2023-02-28T14:41:00;9.30;;;5.10;;
5345;SDS011;2695;49.444;11.054;2023-02-28T14:43:33;7.27;;;4.10;;
5345;SDS011;2695;49.444;11.054;2023-02-28T14:46:02;11.83;;;6.90;;
5345;SDS011;2695;49.444;11.054;2023-02-28T14:48:33;9.23;;;5.33;;
5345;SDS011;2695;49.444;11.054;2023-02-28T14:51:05;7.43;;;4.90;;
5345;SDS011;2695;49.444;11.054;2023-02-28T14:53:35;8.77;;;5.90;;
5345;SDS011;2695;49.444;11.054;2023-02-28T14:56:04;10.77;;;6.90;;
5345;SDS011;2695;49.444;11.054;2023-02-28T14:58:51;7.43;;;5.80;;
5345;SDS011;2695;49.444;11.054;2023-02-28T15:01:21;8.47;;;5.67;;
5345;SDS011;2695;49.444;11.054;2023-02-28T15:04:00;10.17;;;7.30;;
5345;SDS011;2695;49.444;11.054;2023-02-28T15:06:30;13.20;;;7.20;;
5345;SDS011;2695;49.444;11.054;2023-02-28T15:09:14;8.60;;;6.03;;
5345;SDS011;2695;49.444;11.054;2023-02-28T15:11:45;16.57;;;8.00;;
5345;SDS011;2695;49.444;11.054;2023-02-28T15:14:19;18.03;;;7.93;;
5345;SDS011;2695;49.444;11.054;2023-02-28T15:16:50;9.47;;;6.57;;
5345;SDS011;2695;49.444;11.054;2023-02-28T15:19:24;12.97;;;6.27;;
5345;SDS011;2695;49.444;11.054;2023-02-28T15:21:56;10.40;;;6.90;;
5345;SDS011;2695;49.444;11.054;2023-02-28T15:24:30;11.63;;;7.10;;
5345;SDS011;2695;49.444;11.054;2023-02-28T15:27:05;10.17;;;7.10;;
5345;SDS011;2695;49.444;11.054;2023-02-28T15:29:44;10.90;;;6.40;;
5345;SDS011;2695;49.444;11.054;2023-02-28T15:32:21;10.43;;;7.40;;
5345;SDS011;2695;49.444;11.054;2023-02-28T15:34:55;10.40;;;5.70;;
5345;SDS011;2695;49.444;11.054;2023-02-28T15:37:29;9.10;;;6.70;;
5345;SDS011;2695;49.444;11.054;2023-02-28T15:40:14;12.47;;;7.50;;
5345;SDS011;2695;49.444;11.054;2023-02-28T15:42:59;11.60;;;6.93;;
5345;SDS011;2695;49.444;11.054;2023-02-28T15:45:36;10.63;;;6.47;;
5345;SDS011;2695;49.444;11.054;2023-02-28T15:48:13;10.97;;;7.13;;
5345;SDS011;2695;49.444;11.054;2023-02-28T15:50:47;9.73;;;6.97;;